KRNH/RNH METAR and TAF weather

Enter ICAO airport designator
Station Type Date Time Source
KRNH METAR 2021/09/25 11:55 UTC NOAA

KRNH 251155Z AUTO 00000KT 10SM CLR 05/02 A2994 RMK AO2 70007 T00470023 10062 20046


Station Type Date Time Source
KRNH Decoded METAR 2021/09/25 11:55 UTC NOAA

New Richmond, New Richmond Municipal Airport, WI, United States (KRNH) 45-08-54N 092-32-17W
Sep 25, 2021 - 07:55 AM EDT / 2021.09.25 1155 UTC
Wind: Calm:0
Visibility: 10 mile(s):0
Sky conditions: clear
Temperature: 40.5 F (4.7 C)
Dew Point: 36.1 F (2.3 C)
Relative Humidity: 84%
Pressure (altimeter): 29.94 in. Hg (1013 hPa)
ob: KRNH 251155Z AUTO 00000KT 10SM CLR 05/02 A2994 RMK AO2 70007 T00470023 10062 20046
cycle: 12

Station Type Date Time Source
KRNH TAF 2021/09/25 12:22 UTC NOAA

TAF KRNH 251120Z 2512/2612 27004KT P6SM BKN150
FM251600 27013G18KT P6SM BKN150
FM252300 26008KT P6SM FEW150
FM260300 18002KT P6SM FEW250

Example: see airport list